Time;durP1;ratioP1;P1;durP2;ratioP2;P2;SDS_P1;SDS_P2;PMS_P1;PMS_P2;Temp;Humidity;BMP_temperature;BMP_pressure;BME280_temperature;BME280_humidity;BME280_pressure;Samples;Min_cycle;Max_cycle;Signal;HPM_P1;HPM_P2
2021/03/20 00:01:58;;;;;;;3.77;3.03;;;;;;;5.14;100.00;103311.66;1766859;79;934645;-80
2021/03/20 00:04:28;;;;;;;4.33;3.17;;;;;;;5.14;100.00;103319.41;1778524;80;934657;-80
2021/03/20 00:06:59;;;;;;;4.37;3.17;;;;;;;5.03;100.00;103320.75;1766852;79;934479;-79
2021/03/20 00:09:32;;;;;;;4.20;3.10;;;;;;;4.99;100.00;103320.80;1778506;79;934743;-80
2021/03/20 00:12:03;;;;;;;4.43;3.43;;;;;;;5.05;100.00;103324.67;1766869;79;933306;-80
2021/03/20 00:14:33;;;;;;;5.30;3.20;;;;;;;5.03;100.00;103322.13;1778433;79;934444;-80
2021/03/20 00:17:03;;;;;;;4.83;3.00;;;;;;;5.42;100.00;103316.86;1766712;79;934355;-80
2021/03/20 00:19:33;;;;;;;4.57;3.10;;;;;;;5.34;100.00;103323.34;1778424;79;934664;-80
2021/03/20 00:22:03;;;;;;;5.10;3.08;;;;;;;5.16;100.00;103320.61;1766872;79;934379;-80
2021/03/20 00:24:33;;;;;;;5.17;3.17;;;;;;;4.90;100.00;103312.80;1778406;79;933767;-80
2021/03/20 00:27:03;;;;;;;6.27;3.77;;;;;;;4.65;100.00;103319.06;1766858;79;933330;-79
2021/03/20 00:29:33;;;;;;;5.13;3.20;;;;;;;4.79;100.00;103322.90;1778463;80;934462;-79
2021/03/20 00:32:03;;;;;;;4.17;3.33;;;;;;;5.02;100.00;103323.68;1766753;79;934567;-79
2021/03/20 00:34:33;;;;;;;4.93;3.40;;;;;;;5.03;100.00;103324.02;1778432;79;933397;-79
2021/03/20 00:37:03;;;;;;;5.13;3.57;;;;;;;5.16;100.00;103326.98;1766867;79;933666;-79
2021/03/20 00:39:33;;;;;;;4.30;3.17;;;;;;;4.72;100.00;103334.30;1778426;79;934710;-79
2021/03/20 00:42:03;;;;;;;5.25;3.15;;;;;;;4.61;100.00;103329.25;1766757;79;934345;-80
2021/03/20 00:44:33;;;;;;;5.70;3.77;;;;;;;4.72;100.00;103335.68;1778570;79;934422;-80
2021/03/20 00:47:04;;;;;;;5.12;3.42;;;;;;;4.65;100.00;103334.20;1766839;79;934479;-79
2021/03/20 00:49:34;;;;;;;4.70;3.60;;;;;;;4.69;100.00;103336.92;1778192;78;934660;-80
2021/03/20 00:52:05;;;;;;;5.72;3.40;;;;;;;5.09;100.00;103343.09;1766865;79;933381;-80
2021/03/20 00:54:34;;;;;;;4.20;3.47;;;;;;;4.98;100.00;103343.01;1778448;79;934664;-80
2021/03/20 00:57:06;;;;;;;5.35;3.50;;;;;;;4.62;100.00;103337.86;1766808;79;934499;-79
2021/03/20 00:59:37;;;;;;;4.33;2.85;;;;;;;4.34;100.00;103343.91;1778313;79;934489;-80
2021/03/20 01:02:07;;;;;;;4.87;3.53;;;;;;;4.30;100.00;103348.58;1766861;79;934587;-79
2021/03/20 01:04:37;;;;;;;3.50;3.20;;;;;;;4.46;100.00;103351.20;1778380;80;934461;-79
2021/03/20 01:07:07;;;;;;;3.83;3.33;;;;;;;4.52;100.00;103347.22;1766762;79;934661;-78
2021/03/20 01:09:37;;;;;;;4.00;3.13;;;;;;;4.54;100.00;103352.00;1778463;79;934499;-80
2021/03/20 01:12:08;;;;;;;4.97;3.67;;;;;;;4.58;100.00;103360.22;1766732;79;934676;-79
2021/03/20 01:14:38;;;;;;;4.37;3.73;;;;;;;4.59;100.00;103359.70;1778408;79;933397;-79
2021/03/20 01:17:08;;;;;;;4.63;3.30;;;;;;;4.62;100.00;103358.50;1766853;79;933645;-79
2021/03/20 01:19:37;;;;;;;4.80;3.70;;;;;;;4.64;100.00;103357.78;1778357;79;934451;-79
2021/03/20 01:22:07;;;;;;;4.25;3.45;;;;;;;4.64;100.00;103358.64;1766710;80;934561;-79
2021/03/20 01:24:37;;;;;;;6.00;3.70;;;;;;;4.64;100.00;103358.64;1778419;79;934498;-79
2021/03/20 01:27:08;;;;;;;4.80;3.50;;;;;;;4.61;100.00;103349.38;1766774;79;934482;-79
2021/03/20 01:29:38;;;;;;;7.43;3.30;;;;;;;4.64;100.00;103353.13;1778428;79;934448;-79
2021/03/20 01:32:08;;;;;;;5.93;3.57;;;;;;;4.55;100.00;103352.34;1766847;80;934419;-79
2021/03/20 01:34:38;;;;;;;5.97;3.43;;;;;;;4.44;100.00;103347.80;1778409;79;934498;-80
2021/03/20 01:37:08;;;;;;;3.55;3.22;;;;;;;4.16;100.00;103348.84;1766692;80;934717;-79
2021/03/20 01:39:38;;;;;;;5.83;3.37;;;;;;;4.36;100.00;103345.97;1778393;79;934475;-80
2021/03/20 01:42:09;;;;;;;4.30;3.30;;;;;;;4.38;100.00;103345.25;1766824;79;934378;-80
2021/03/20 01:44:39;;;;;;;5.03;3.50;;;;;;;4.40;100.00;103347.83;1778400;79;934577;-80
2021/03/20 01:47:14;;;;;;;4.87;4.00;;;;;;;4.44;100.00;103337.65;1766889;79;944131;-80
2021/03/20 01:49:47;;;;;;;6.17;3.60;;;;;;;4.55;100.00;103334.45;1778583;79;932993;-80
2021/03/20 01:52:22;;;;;;;5.28;3.90;;;;;;;4.48;100.00;103329.88;1766725;78;933353;-80
2021/03/20 01:54:56;;;;;;;5.30;3.60;;;;;;;4.38;100.00;103331.49;1778661;79;932524;-81
2021/03/20 01:57:29;;;;;;;4.60;3.77;;;;;;;4.40;100.00;103329.95;1778587;79;934439;-80
2021/03/20 02:00:00;;;;;;;4.53;3.83;;;;;;;4.40;100.00;103334.94;1767009;79;934646;-80
2021/03/20 02:02:30;;;;;;;4.27;3.40;;;;;;;4.61;100.00;103336.13;1778573;80;934443;-79
2021/03/20 02:05:00;;;;;;;5.03;3.97;;;;;;;4.61;100.00;103336.13;1766823;79;934501;-78
2021/03/20 02:07:30;;;;;;;5.27;3.40;;;;;;;4.76;100.00;103339.25;1778516;79;934561;-78
2021/03/20 02:10:00;;;;;;;4.27;3.53;;;;;;;4.66;100.00;103332.31;1766873;79;934440;-79
2021/03/20 02:12:33;;;;;;;4.43;3.47;;;;;;;4.66;100.00;103327.66;1778386;79;934576;-78
2021/03/20 02:15:07;;;;;;;5.22;3.47;;;;;;;4.75;100.00;103331.20;1766769;79;934491;-79
2021/03/20 02:17:42;;;;;;;5.27;3.60;;;;;;;4.91;100.00;103325.02;1778537;79;934582;-79
2021/03/20 02:20:48;;;;;;;5.47;3.95;;;;;;;4.88;100.00;103329.50;1766955;79;934584;-78
2021/03/20 02:23:46;;;;;;;4.07;3.20;;;;;;;4.90;100.00;103333.45;1764520;78;934589;-78
2021/03/20 02:26:46;;;;;;;4.65;4.15;;;;;;;5.12;100.00;103326.17;1766295;79;934382;-79
2021/03/20 02:29:35;;;;;;;4.30;3.43;;;;;;;4.99;100.00;103327.68;1766987;79;934658;-78
2021/03/20 02:32:39;;;;;;;5.87;3.90;;;;;;;5.21;100.00;103323.14;1766700;79;934825;-78
2021/03/20 02:35:15;;;;;;;5.28;4.45;;;;;;;5.26;100.00;103322.02;1752832;79;934494;-78
2021/03/20 02:37:49;;;;;;;5.58;3.87;;;;;;;5.27;100.00;103322.36;1778452;79;932827;-79
2021/03/20 02:40:23;;;;;;;6.23;3.70;;;;;;;5.25;100.00;103322.23;1766950;80;934676;-79
2021/03/20 02:42:57;;;;;;;5.40;3.80;;;;;;;5.39;100.00;103324.97;1778569;79;932596;-78
2021/03/20 02:45:32;;;;;;;5.00;3.55;;;;;;;5.38;100.00;103321.91;1778609;79;933666;-79
2021/03/20 02:48:05;;;;;;;4.62;3.87;;;;;;;5.45;100.00;103320.61;1766857;79;934541;-78
2021/03/20 02:50:38;;;;;;;5.97;4.30;;;;;;;5.65;100.00;103319.52;1778333;79;934434;-78
2021/03/20 02:53:11;;;;;;;5.50;3.70;;;;;;;5.42;100.00;103321.86;1766768;78;934505;-78
2021/03/20 02:55:44;;;;;;;6.78;4.00;;;;;;;5.32;100.00;103319.90;1778383;79;934494;-78
2021/03/20 02:58:17;;;;;;;5.87;3.40;;;;;;;5.43;100.00;103322.16;1766910;79;934360;-78
2021/03/20 03:00:50;;;;;;;4.83;4.03;;;;;;;5.48;100.00;103318.31;1778549;79;932693;-78
2021/03/20 03:03:22;;;;;;;4.47;3.70;;;;;;;5.49;100.00;103320.56;1766890;79;934425;-78
2021/03/20 03:05:55;;;;;;;4.00;3.43;;;;;;;5.48;100.00;103316.94;1778494;79;932675;-79
2021/03/20 03:08:28;;;;;;;7.20;4.03;;;;;;;5.54;100.00;103319.98;1778393;79;934528;-78
2021/03/20 03:11:01;;;;;;;5.13;4.07;;;;;;;5.46;100.00;103312.16;1778449;80;932665;-78
2021/03/20 03:13:34;;;;;;;5.53;3.93;;;;;;;5.44;100.00;103305.97;1778405;80;934501;-78
2021/03/20 03:16:07;;;;;;;4.12;3.67;;;;;;;5.39;100.00;103296.58;1766838;79;934541;-79
2021/03/20 03:18:40;;;;;;;5.67;3.60;;;;;;;5.34;100.00;103299.91;1778434;79;934452;-80
2021/03/20 03:21:13;;;;;;;5.20;4.13;;;;;;;5.19;100.00;103311.44;1766849;80;934668;-79
2021/03/20 03:23:43;;;;;;;4.73;3.73;;;;;;;5.01;100.00;103317.83;1778519;79;932640;-79
2021/03/20 03:26:16;;;;;;;5.22;3.75;;;;;;;5.32;100.00;103324.55;1766944;79;934388;-78
2021/03/20 03:29:06;;;;;;;5.03;3.95;;;;;;;5.35;100.00;103316.75;1710258;80;934581;-78
2021/03/20 03:31:42;;;;;;;5.97;3.97;;;;;;;5.43;100.00;103319.96;1722418;82;934527;-79
2021/03/20 03:34:16;;;;;;;5.40;3.90;;;;;;;5.00;100.00;103321.13;1711219;82;934601;-79
2021/03/20 03:36:49;;;;;;;4.87;3.83;;;;;;;5.09;100.00;103315.02;1726679;81;932765;-79
2021/03/20 03:39:23;;;;;;;4.83;4.17;;;;;;;5.05;100.00;103312.28;1711090;82;934666;-78
2021/03/20 03:41:53;;;;;;;5.23;3.67;;;;;;;5.10;100.00;103310.33;1725062;81;932772;-79
2021/03/20 03:44:23;;;;;;;3.90;3.50;;;;;;;4.98;100.00;103302.55;1708978;81;934621;-79
2021/03/20 03:46:55;;;;;;;3.93;3.37;;;;;;;5.12;100.00;103307.74;1721749;82;932694;-79
2021/03/20 03:49:26;;;;;;;5.47;3.70;;;;;;;5.52;100.00;103309.69;1722210;82;934584;-79
2021/03/20 03:51:55;;;;;;;4.50;3.93;;;;;;;5.72;100.00;103312.17;1722351;82;932626;-79
2021/03/20 03:54:25;;;;;;;4.37;3.13;;;;;;;5.77;100.00;103317.97;1721348;80;934699;-79
2021/03/20 03:57:08;;;;;;;4.43;3.87;;;;;;;5.94;100.00;103318.96;1721762;82;932969;-79
2021/03/20 03:59:44;;;;;;;5.57;4.17;;;;;;;5.83;100.00;103322.17;1726065;81;934751;-79
2021/03/20 04:02:17;;;;;;;5.95;4.08;;;;;;;5.80;100.00;103313.44;1766854;79;934530;-78
2021/03/20 04:04:56;;;;;;;4.27;3.50;;;;;;;5.79;100.00;103315.85;1778478;78;932577;-79
2021/03/20 04:07:37;;;;;;;5.00;3.80;;;;;;;5.63;100.00;103305.91;1778507;79;934609;-78
2021/03/20 04:10:12;;;;;;;5.40;3.97;;;;;;;5.59;100.00;103307.34;1766952;79;934530;-79
2021/03/20 04:12:46;;;;;;;5.70;3.57;;;;;;;5.63;100.00;103317.45;1778464;79;932719;-79
2021/03/20 04:15:22;;;;;;;3.97;3.30;;;;;;;5.85;100.00;103313.19;1766983;79;934782;-79
2021/03/20 04:17:57;;;;;;;3.60;2.90;;;;;;;5.84;100.00;103311.47;1778605;79;932641;-79
2021/03/20 04:20:30;;;;;;;4.00;3.03;;;;;;;5.89;100.00;103313.17;1778552;79;934580;-79
2021/03/20 04:23:04;;;;;;;4.70;3.13;;;;;;;5.72;100.00;103313.55;1767014;79;934683;-79
2021/03/20 04:25:37;;;;;;;3.73;2.90;;;;;;;5.84;100.00;103320.27;1778501;79;934583;-79
2021/03/20 04:28:16;;;;;;;6.00;3.57;;;;;;;5.83;100.00;103321.31;1766934;79;934494;-79
2021/03/20 04:30:49;;;;;;;4.27;3.20;;;;;;;6.02;100.00;103319.36;1778610;80;932648;-79
2021/03/20 04:33:23;;;;;;;3.13;2.60;;;;;;;5.84;100.00;103312.00;1766958;79;934448;-79
2021/03/20 04:35:58;;;;;;;4.97;3.10;;;;;;;5.83;100.00;103315.80;1778591;79;932832;-79
2021/03/20 04:38:28;;;;;;;2.97;2.67;;;;;;;5.68;100.00;103318.59;1778544;80;934555;-80
2021/03/20 04:41:01;;;;;;;4.23;3.27;;;;;;;5.67;100.00;103318.26;1766805;79;934751;-78
2021/03/20 04:43:34;;;;;;;5.17;3.50;;;;;;;5.61;100.00;103316.78;1778419;79;934501;-78
2021/03/20 04:46:07;;;;;;;3.02;2.40;;;;;;;5.63;100.00;103315.56;1766850;79;934470;-78
2021/03/20 04:48:40;;;;;;;4.83;3.03;;;;;;;5.56;100.00;103317.91;1778615;79;934468;-81
2021/03/20 04:51:14;;;;;;;4.13;3.00;;;;;;;5.59;100.00;103319.75;1766851;79;941286;-80
2021/03/20 04:53:44;;;;;;;4.27;3.10;;;;;;;5.66;100.00;103312.92;1778469;79;932572;-80
2021/03/20 04:56:17;;;;;;;4.60;3.13;;;;;;;5.55;100.00;103307.91;1766905;79;934612;-79
2021/03/20 04:58:49;;;;;;;4.77;3.00;;;;;;;5.55;100.00;103303.78;1778637;79;932544;-80
2021/03/20 05:01:22;;;;;;;3.40;2.83;;;;;;;5.60;100.00;103301.31;1755197;79;934489;-80
2021/03/20 05:03:56;;;;;;;4.43;2.87;;;;;;;5.47;100.00;103295.95;1778531;79;932582;-80
2021/03/20 05:06:28;;;;;;;4.37;3.27;;;;;;;5.44;100.00;103300.45;1778458;79;934670;-80
2021/03/20 05:09:01;;;;;;;3.50;2.83;;;;;;;5.42;100.00;103303.08;1766841;80;934492;-79
2021/03/20 05:11:34;;;;;;;4.17;3.17;;;;;;;5.39;100.00;103310.37;1778512;79;934544;-80
2021/03/20 05:14:08;;;;;;;3.70;2.90;;;;;;;5.47;100.00;103298.72;1767014;79;934645;-80
2021/03/20 05:16:41;;;;;;;4.30;3.13;;;;;;;5.30;100.00;103301.86;1778561;80;934584;-81
2021/03/20 05:19:11;;;;;;;4.03;2.90;;;;;;;5.31;100.00;103301.64;1767044;80;934576;-80
2021/03/20 05:21:43;;;;;;;3.37;3.00;;;;;;;5.29;100.00;103288.59;1778393;79;934644;-80
2021/03/20 05:24:17;;;;;;;5.10;3.22;;;;;;;5.34;100.00;103289.41;1767164;79;934473;-80
2021/03/20 05:26:47;;;;;;;3.43;2.80;;;;;;;5.30;100.00;103301.86;1778700;79;932738;-80
2021/03/20 05:29:17;;;;;;;5.83;2.90;;;;;;;5.31;100.00;103303.02;1767076;79;934566;-82
2021/03/20 05:31:48;;;;;;;3.47;2.70;;;;;;;5.30;100.00;103302.72;1778675;79;932547;-81
2021/03/20 05:34:21;;;;;;;3.70;3.07;;;;;;;5.33;100.00;103307.84;1767067;79;934593;-81
2021/03/20 05:36:51;;;;;;;4.73;3.30;;;;;;;5.32;100.00;103303.88;1778660;79;932652;-81
2021/03/20 05:39:22;;;;;;;4.03;3.27;;;;;;;5.38;100.00;103296.24;1767108;79;934513;-81
2021/03/20 05:42:01;;;;;;;3.63;3.23;;;;;;;5.38;100.00;103303.13;1778734;80;932692;-81
2021/03/20 05:44:45;;;;;;;3.75;2.98;;;;;;;5.37;100.00;103297.28;1778670;80;934499;-80
2021/03/20 05:47:23;;;;;;;5.60;3.02;;;;;;;5.30;100.00;103304.09;1766928;79;934557;-81
2021/03/20 05:49:58;;;;;;;4.13;2.80;;;;;;;5.32;100.00;103299.23;1778593;80;932632;-81
2021/03/20 05:52:35;;;;;;;4.67;3.13;;;;;;;5.19;100.00;103293.53;1778601;80;934428;-80
2021/03/20 05:55:35;;;;;;;4.07;3.53;;;;;;;5.21;100.00;103296.97;1767100;79;934401;-79
2021/03/20 05:58:14;;;;;;;4.03;3.17;;;;;;;5.30;100.00;103301.86;1761931;79;934417;-79
2021/03/20 06:00:50;;;;;;;4.03;3.30;;;;;;;5.30;100.00;103308.23;1778748;80;932712;-81
2021/03/20 06:03:54;;;;;;;4.73;3.80;;;;;;;5.17;100.00;103299.77;1766873;79;934583;-81
2021/03/20 06:06:36;;;;;;;5.53;3.70;;;;;;;5.21;100.00;103306.61;1773451;79;934459;-81
2021/03/20 06:09:15;;;;;;;5.03;3.33;;;;;;;5.36;100.00;103312.09;1766776;79;934667;-80
2021/03/20 06:11:53;;;;;;;5.17;3.43;;;;;;;5.44;100.00;103314.23;1778484;79;932529;-81
2021/03/20 06:14:43;;;;;;;4.90;3.50;;;;;;;5.58;100.00;103313.90;1778499;79;934458;-80
2021/03/20 06:17:17;;;;;;;4.70;3.87;;;;;;;5.58;100.00;103311.14;1766705;79;934406;-80
2021/03/20 06:19:56;;;;;;;5.62;3.62;;;;;;;5.74;100.00;103315.05;1775942;78;932668;-80
2021/03/20 06:23:09;;;;;;;4.53;3.60;;;;;;;5.80;100.00;103319.81;1765384;79;934581;-81
2021/03/20 06:26:02;;;;;;;5.13;3.40;;;;;;;5.85;100.00;103313.19;1778355;79;934771;-81
2021/03/20 06:28:36;;;;;;;4.00;3.53;;;;;;;5.75;100.00;103313.16;1778016;79;934522;-81
2021/03/20 06:31:10;;;;;;;4.95;3.20;;;;;;;5.85;100.00;103320.09;1766903;79;934553;-81
2021/03/20 06:33:44;;;;;;;5.40;4.03;;;;;;;5.90;100.00;103314.84;1778395;79;934492;-80
2021/03/20 06:36:19;;;;;;;5.25;3.92;;;;;;;5.84;100.00;103312.85;1767013;79;934568;-80
2021/03/20 06:38:53;;;;;;;4.90;3.47;;;;;;;5.80;100.00;103314.30;1778620;79;932871;-80
2021/03/20 06:41:27;;;;;;;4.37;3.63;;;;;;;6.10;100.00;103310.10;1766781;79;934406;-80
2021/03/20 06:44:01;;;;;;;4.07;3.40;;;;;;;6.35;100.00;103316.95;1778590;79;932667;-80
2021/03/20 06:46:34;;;;;;;5.13;3.33;;;;;;;6.22;100.00;103315.42;1778648;79;934533;-80
2021/03/20 06:49:08;;;;;;;4.10;3.13;;;;;;;6.24;100.00;103311.95;1767003;79;934726;-80
2021/03/20 06:51:39;;;;;;;4.73;2.70;;;;;;;6.25;100.00;103315.88;1776975;79;934490;-81
2021/03/20 06:54:09;;;;;;;3.70;2.92;;;;;;;6.50;100.00;103308.61;1766923;80;934795;-80
2021/03/20 06:56:38;;;;;;;5.23;3.30;;;;;;;6.33;100.00;103312.99;1778576;79;934475;-80
2021/03/20 06:59:12;;;;;;;3.12;2.83;;;;;;;6.43;100.00;103318.19;1766774;77;934602;-80
2021/03/20 07:01:47;;;;;;;3.60;2.83;;;;;;;6.36;100.00;103320.90;1778579;79;934469;-80
2021/03/20 07:04:47;;;;;;;3.53;3.03;;;;;;;6.45;100.00;103320.77;1767051;79;934432;-80
2021/03/20 07:07:25;;;;;;;4.30;2.87;;;;;;;6.52;100.00;103318.39;1766952;79;934497;-80
2021/03/20 07:09:55;;;;;;;2.93;2.60;;;;;;;6.51;100.00;103317.20;1778650;79;932827;-79
2021/03/20 07:12:27;;;;;;;3.43;2.60;;;;;;;6.53;100.00;103312.34;1766924;79;934467;-79
2021/03/20 07:14:59;;;;;;;4.43;2.90;;;;;;;6.70;100.00;103306.87;1778562;79;932570;-80
2021/03/20 07:17:35;;;;;;;3.00;2.70;;;;;;;6.72;100.00;103317.17;1778586;79;934389;-79
2021/03/20 07:20:10;;;;;;;4.40;2.57;;;;;;;6.76;100.00;103307.47;1766788;79;934452;-79
2021/03/20 07:22:43;;;;;;;3.80;2.40;;;;;;;6.84;100.00;103309.55;1778668;79;934585;-78
2021/03/20 07:25:26;;;;;;;3.58;2.45;;;;;;;6.84;100.00;103310.07;1766908;79;934566;-78
2021/03/20 07:27:59;;;;;;;2.47;2.27;;;;;;;6.86;100.00;103306.04;1778646;79;932589;-79
2021/03/20 07:30:36;;;;;;;2.42;2.20;;;;;;;6.86;100.00;103310.70;1777916;79;934629;-79
2021/03/20 07:33:25;;;;;;;2.33;2.07;;;;;;;6.88;100.00;103301.70;1766974;79;934466;-79
2021/03/20 07:35:57;;;;;;;2.53;2.17;;;;;;;6.93;100.00;103303.31;1778686;79;932658;-81
2021/03/20 07:38:30;;;;;;;4.73;2.03;;;;;;;7.00;100.00;103304.77;1766850;79;934405;-80
2021/03/20 07:41:12;;;;;;;3.37;2.20;;;;;;;7.01;100.00;103308.72;1778506;80;932589;-79
2021/03/20 07:43:42;;;;;;;2.33;2.13;;;;;;;7.07;100.00;103305.13;1778546;80;934533;-80
2021/03/20 07:46:18;;;;;;;2.80;2.22;;;;;;;7.06;100.00;103310.87;1766848;80;934440;-79
2021/03/20 07:48:50;;;;;;;3.00;2.33;;;;;;;7.12;100.00;103311.43;1778764;79;934493;-79
2021/03/20 07:51:20;;;;;;;2.05;1.80;;;;;;;7.12;100.00;103311.43;1765816;79;934450;-79
2021/03/20 07:53:53;;;;;;;3.10;2.10;;;;;;;7.18;100.00;103306.48;1778557;79;932904;-79
2021/03/20 07:56:33;;;;;;;2.17;1.97;;;;;;;7.20;100.00;103309.36;1766986;79;934635;-79
2021/03/20 07:59:15;;;;;;;2.50;1.90;;;;;;;7.23;100.00;103313.09;1772159;77;934620;-79
2021/03/20 08:01:50;;;;;;;3.07;2.07;;;;;;;7.19;100.00;103306.27;1736241;80;934447;-80
2021/03/20 08:04:25;;;;;;;3.83;2.30;;;;;;;7.30;100.00;103315.39;1766972;80;934639;-79
2021/03/20 08:06:55;;;;;;;2.97;2.00;;;;;;;7.30;100.00;103317.30;1778552;79;932679;-80
2021/03/20 08:09:28;;;;;;;2.30;2.00;;;;;;;7.28;100.00;103312.48;1766863;79;934535;-80
2021/03/20 08:12:13;;;;;;;3.23;2.23;;;;;;;7.30;100.00;103312.62;1778566;79;932542;-80
2021/03/20 08:14:46;;;;;;;2.93;2.30;;;;;;;7.45;100.00;103316.62;1778516;79;934579;-80
2021/03/20 08:17:20;;;;;;;4.58;2.58;;;;;;;7.42;100.00;103310.13;1766971;79;934435;-80
2021/03/20 08:19:50;;;;;;;4.17;2.60;;;;;;;7.52;100.00;103313.39;1778480;79;932505;-80
2021/03/20 08:22:42;;;;;;;3.60;2.50;;;;;;;7.60;100.00;103307.68;1766953;79;934502;-80
2021/03/20 08:25:22;;;;;;;4.47;2.73;;;;;;;7.68;100.00;103306.12;1766807;80;934384;-80
2021/03/20 08:27:57;;;;;;;3.90;2.53;;;;;;;7.77;100.00;103315.09;1778400;79;932780;-79
2021/03/20 08:30:41;;;;;;;4.83;2.77;;;;;;;7.72;100.00;103319.00;1766926;79;934411;-80
2021/03/20 08:33:49;;;;;;;4.20;2.93;;;;;;;7.79;100.00;103315.72;1766851;79;934899;-80
2021/03/20 08:36:28;;;;;;;3.77;3.13;;;;;;;7.71;100.00;103310.38;1766809;79;934699;-81
2021/03/20 08:39:07;;;;;;;4.70;3.23;;;;;;;7.75;100.00;103314.44;1778545;79;932614;-80
2021/03/20 08:41:46;;;;;;;4.37;3.07;;;;;;;7.80;100.00;103314.67;1778483;80;934442;-80
2021/03/20 08:44:34;;;;;;;5.20;3.45;;;;;;;7.90;100.00;103312.91;1766927;79;934625;-80
2021/03/20 08:47:31;;;;;;;5.30;3.50;;;;;;;7.89;100.00;103306.52;1767919;79;934467;-79
2021/03/20 08:50:10;;;;;;;4.93;3.40;;;;;;;7.94;100.00;103305.37;1778494;79;932921;-80
2021/03/20 08:52:45;;;;;;;4.10;3.63;;;;;;;8.01;100.00;103303.98;1778375;79;933353;-79
2021/03/20 08:55:38;;;;;;;4.73;4.03;;;;;;;8.10;100.00;103313.29;1766883;79;933418;-79
2021/03/20 08:58:14;;;;;;;5.03;4.35;;;;;;;8.11;100.00;103312.77;1766881;79;934527;-79
2021/03/20 09:00:48;;;;;;;7.10;4.50;;;;;;;8.11;100.00;103299.78;1778353;78;934648;-79
2021/03/20 09:03:21;;;;;;;5.10;3.90;;;;;;;8.09;100.00;103305.18;1766978;80;934685;-79
2021/03/20 09:05:55;;;;;;;6.00;3.93;;;;;;;8.21;100.00;103305.74;1778455;79;932576;-79
2021/03/20 09:08:29;;;;;;;5.40;3.80;;;;;;;8.19;100.00;103307.88;1766799;79;934581;-78
2021/03/20 09:11:04;;;;;;;5.10;4.00;;;;;;;8.28;100.00;103304.91;1778493;79;932606;-78
2021/03/20 09:13:38;;;;;;;8.30;4.70;;;;;;;8.33;100.00;103303.27;1778451;79;934380;-79
2021/03/20 09:16:12;;;;;;;5.47;4.50;;;;;;;8.43;100.00;103305.63;1766782;79;934542;-79
2021/03/20 09:18:43;;;;;;;7.43;5.07;;;;;;;8.52;100.00;103302.95;1778198;79;934512;-80
2021/03/20 09:21:14;;;;;;;5.55;4.33;;;;;;;8.55;100.00;103305.32;1766789;79;944340;-80
2021/03/20 09:23:47;;;;;;;6.90;4.87;;;;;;;8.56;100.00;103307.00;1778461;79;933568;-80
2021/03/20 09:26:38;;;;;;;7.87;5.27;;;;;;;8.58;100.00;103300.73;1766854;79;933303;-80
2021/03/20 09:29:12;;;;;;;6.20;5.37;;;;;;;8.65;100.00;103294.64;1766768;79;934674;-79
2021/03/20 09:32:03;;;;;;;9.85;6.67;;;;;;;8.64;100.00;103303.48;1778322;79;934561;-80
2021/03/20 09:35:01;;;;;;;6.60;5.10;;;;;;;8.76;100.00;103302.34;1776276;79;933369;-80
2021/03/20 09:38:02;;;;;;;7.33;5.37;;;;;;;8.82;100.00;103297.31;1734130;80;934492;-80
2021/03/20 09:40:50;;;;;;;9.00;6.40;;;;;;;9.02;100.00;103300.94;1778334;80;934547;-80
2021/03/20 09:43:23;;;;;;;7.90;5.95;;;;;;;9.00;100.00;103294.74;1766899;79;934520;-79
2021/03/20 09:46:35;;;;;;;10.10;6.27;;;;;;;9.09;100.00;103289.30;1778481;79;932863;-79
2021/03/20 09:49:09;;;;;;;10.00;6.37;;;;;;;9.08;100.00;103285.34;1766719;79;936585;-77
2021/03/20 09:51:59;;;;;;;13.80;7.50;;;;;;;9.17;100.00;103293.75;1778304;79;935898;-79
2021/03/20 09:54:43;;;;;;;13.50;7.10;;;;;;;9.30;100.00;103301.19;1778343;80;935454;-79
2021/03/20 09:57:53;;;;;;;13.98;7.67;;;;;;;9.27;100.00;103299.72;1766728;80;946188;-78
2021/03/20 10:00:48;;;;;;;12.27;7.80;;;;;;;9.29;100.00;103302.25;1766740;79;936618;-79
2021/03/20 10:03:47;;;;;;;12.73;7.92;;;;;;;9.26;100.00;103302.70;1766577;77;936767;-78
2021/03/20 10:06:40;;;;;;;12.93;7.83;;;;;;;9.26;100.00;103299.39;1722346;79;936551;-76
2021/03/20 10:09:27;;;;;;;10.65;7.42;;;;;;;9.30;100.00;103294.25;1766717;79;936668;-77
2021/03/20 10:12:16;;;;;;;12.10;7.90;;;;;;;9.35;100.00;103298.63;1778436;79;934449;-77
2021/03/20 10:15:05;;;;;;;11.13;6.90;;;;;;;9.37;100.00;103295.11;1778443;79;936534;-77
2021/03/20 10:17:39;;;;;;;11.73;7.00;;;;;;;9.42;100.00;103300.30;1778451;79;935704;-77
2021/03/20 10:20:15;;;;;;;13.45;7.65;;;;;;;9.50;100.00;103302.83;1763900;78;936466;-77
2021/03/20 10:22:53;;;;;;;9.30;7.43;;;;;;;9.46;100.00;103303.48;1778414;79;936462;-77
2021/03/20 10:25:25;;;;;;;11.77;8.10;;;;;;;9.65;100.00;103304.50;1767023;79;934587;-77
2021/03/20 10:28:00;;;;;;;12.30;7.77;;;;;;;9.60;100.00;103299.61;1778448;79;934779;-78
2021/03/20 10:30:33;;;;;;;11.67;9.07;;;;;;;9.50;100.00;103300.59;1778409;79;936498;-77
2021/03/20 10:33:07;;;;;;;12.63;8.13;;;;;;;9.74;100.00;103291.55;1777027;79;936522;-77
2021/03/20 10:35:39;;;;;;;13.73;9.00;;;;;;;9.79;100.00;103285.34;1736210;80;935447;-78
2021/03/20 10:38:21;;;;;;;14.87;9.27;;;;;;;9.77;100.00;103288.33;1766792;80;936489;-77
2021/03/20 10:40:59;;;;;;;16.43;9.70;;;;;;;9.94;100.00;103279.80;1778442;80;934711;-77
2021/03/20 10:43:30;;;;;;;15.13;9.73;;;;;;;9.89;100.00;103287.09;1778302;80;936516;-76
2021/03/20 10:46:00;;;;;;;15.57;9.63;;;;;;;9.77;100.00;103284.70;1778459;79;934717;-78
2021/03/20 10:48:30;;;;;;;12.87;8.60;;;;;;;9.68;100.00;103280.46;1778396;79;936473;-78
2021/03/20 10:51:03;;;;;;;16.67;9.73;;;;;;;9.76;100.00;103279.67;1778499;79;934599;-77
2021/03/20 10:53:36;;;;;;;17.23;9.90;;;;;;;9.80;100.00;103278.69;1778450;79;935482;-77
2021/03/20 10:56:07;;;;;;;14.80;9.87;;;;;;;9.79;100.00;103282.03;1766806;79;935418;-77
2021/03/20 10:58:41;;;;;;;16.00;9.53;;;;;;;9.90;100.00;103282.71;1778394;79;936563;-77
2021/03/20 11:01:13;;;;;;;16.15;10.03;;;;;;;9.92;100.00;103280.58;1766687;79;936568;-77
2021/03/20 11:03:44;;;;;;;15.23;9.77;;;;;;;9.94;100.00;103277.03;1778226;77;938785;-77
2021/03/20 11:06:17;;;;;;;16.50;9.67;;;;;;;9.88;100.00;103274.30;1766925;79;936514;-78
2021/03/20 11:08:49;;;;;;;15.43;9.70;;;;;;;9.79;100.00;103268.69;1778417;79;936571;-77
2021/03/20 11:11:22;;;;;;;15.45;9.00;;;;;;;9.90;100.00;103267.44;1766863;80;936594;-77
2021/03/20 11:13:54;;;;;;;16.73;10.20;;;;;;;9.98;100.00;103267.18;1778569;79;934626;-77
2021/03/20 11:16:27;;;;;;;16.80;9.60;;;;;;;10.02;100.00;103263.41;1766676;80;938766;-77
2021/03/20 11:19:00;;;;;;;15.27;9.83;;;;;;;10.11;100.00;103260.69;1778428;79;936752;-77
2021/03/20 11:21:35;;;;;;;16.23;9.77;;;;;;;9.84;100.00;103259.16;1778222;79;938546;-77
2021/03/20 11:24:09;;;;;;;15.83;9.47;;;;;;;9.96;100.00;103246.27;1766794;79;935552;-77
2021/03/20 11:26:43;;;;;;;16.23;10.13;;;;;;;9.88;100.00;103252.09;1778440;79;936540;-77
2021/03/20 11:29:16;;;;;;;17.15;10.85;;;;;;;10.01;100.00;103246.46;1766755;79;938686;-77
2021/03/20 11:31:51;;;;;;;15.87;10.07;;;;;;;9.92;100.00;103239.47;1778276;79;940732;-78
2021/03/20 11:34:31;;;;;;;18.73;10.50;;;;;;;9.97;100.00;103237.70;1766825;79;938592;-77
2021/03/20 11:37:02;;;;;;;15.83;9.73;;;;;;;10.00;100.00;103230.87;1778344;80;936708;-77
2021/03/20 11:39:32;;;;;;;16.87;10.27;;;;;;;10.04;100.00;103226.03;1778326;79;937585;-78
2021/03/20 11:42:06;;;;;;;17.00;10.63;;;;;;;10.10;100.00;103224.27;1778361;79;938944;-77
2021/03/20 11:44:39;;;;;;;15.73;10.23;;;;;;;10.21;100.00;103219.97;1778261;79;940721;-78
2021/03/20 11:47:20;;;;;;;17.90;10.75;;;;;;;10.14;100.00;103216.36;1766472;79;944531;-77
2021/03/20 11:49:52;;;;;;;17.70;10.43;;;;;;;10.20;100.00;103212.70;1778226;79;938905;-78
2021/03/20 11:52:25;;;;;;;15.90;9.93;;;;;;;10.24;100.00;103209.24;1766672;79;939843;-77
2021/03/20 11:55:03;;;;;;;14.20;9.13;;;;;;;10.26;100.00;103205.72;1778392;80;936635;-77